createdAt,value
2023-01-28T00:01:44.123Z,98164.59
2023-01-28T00:04:11.850Z,98164.50
2023-01-28T00:06:39.680Z,98159.00
2023-01-28T00:09:07.769Z,98166.06
2023-01-28T00:11:35.485Z,98154.56
2023-01-28T00:14:04.785Z,98162.59
2023-01-28T00:16:32.563Z,98167.03
2023-01-28T00:19:00.219Z,98168.69
2023-01-28T00:21:28.176Z,98170.75
2023-01-28T00:23:57.268Z,98164.59
2023-01-28T00:26:26.176Z,98173.50
2023-01-28T00:28:54.234Z,98173.50
2023-01-28T00:31:25.249Z,98173.38
2023-01-28T00:33:56.172Z,98165.31
2023-01-28T00:36:26.749Z,98170.50
2023-01-28T00:38:57.839Z,98163.56
2023-01-28T00:41:29.037Z,98158.84
2023-01-28T00:43:59.398Z,98159.00
2023-01-28T00:46:27.939Z,98155.50
2023-01-28T00:48:55.813Z,98161.03
2023-01-28T00:51:23.892Z,98161.03
2023-01-28T00:53:51.734Z,98160.28
2023-01-28T00:56:19.738Z,98161.97
2023-01-28T00:58:48.381Z,98159.69
2023-01-28T01:01:27.892Z,98156.88
2023-01-28T01:04:02.923Z,98150.78
2023-01-28T01:06:35.919Z,98152.31
2023-01-28T01:09:11.666Z,98151.25
2023-01-28T01:11:41.425Z,98153.78
2023-01-28T01:14:11.217Z,98155.47
2023-01-28T01:16:41.203Z,98150.41
2023-01-28T01:19:09.549Z,98155.59
2023-01-28T01:21:37.475Z,98161.81
2023-01-28T01:24:05.715Z,98154.72
2023-01-28T01:26:33.399Z,98163.97
2023-01-28T01:29:01.368Z,98158.78
2023-01-28T01:31:29.251Z,98161.19
2023-01-28T01:33:56.929Z,98163.72
2023-01-28T01:36:27.048Z,98168.16
2023-01-28T01:38:55.817Z,98174.63
2023-01-28T01:41:31.734Z,98174.84
2023-01-28T01:44:05.581Z,98174.63
2023-01-28T01:46:49.738Z,98180.84
2023-01-28T01:49:28.502Z,98177.81
2023-01-28T01:52:03.779Z,98177.00
2023-01-28T01:54:34.023Z,98179.72
2023-01-28T01:57:04.040Z,98176.13
2023-01-28T01:59:34.760Z,98176.63
2023-01-28T02:02:08.040Z,98173.91
2023-01-28T02:04:44.117Z,98170.38
2023-01-28T02:07:16.567Z,98166.81
2023-01-28T02:09:44.632Z,98170.19
2023-01-28T02:12:22.045Z,98171.25
2023-01-28T02:14:58.763Z,98165.00
2023-01-28T02:17:27.805Z,98167.53
2023-01-28T02:20:08.256Z,98167.66
2023-01-28T02:23:12.340Z,98172.19
2023-01-28T02:26:28.298Z,98170.53
2023-01-28T02:29:14.377Z,98170.28
2023-01-28T02:31:54.443Z,98175.56
2023-01-28T02:34:47.396Z,98177.25
2023-01-28T02:37:38.263Z,98178.09
2023-01-28T02:40:13.187Z,98180.38
2023-01-28T02:42:42.125Z,98180.16
2023-01-28T02:45:52.259Z,98185.44
2023-01-28T02:48:23.756Z,98184.16
2023-01-28T02:51:11.400Z,98182.59
2023-01-28T02:54:25.322Z,98189.53
2023-01-28T02:56:58.921Z,98189.94
2023-01-28T02:59:46.325Z,98186.34
2023-01-28T03:02:43.148Z,98183.59
2023-01-28T03:05:37.230Z,98188.25
2023-01-28T03:08:27.508Z,98188.75
2023-01-28T03:11:16.475Z,98189.38
2023-01-28T03:14:05.430Z,98190.22
2023-01-28T03:16:53.911Z,98191.41
2023-01-28T03:19:42.745Z,98191.63
2023-01-28T03:22:29.668Z,98194.97
2023-01-28T03:25:18.390Z,98189.50
2023-01-28T03:28:19.112Z,98196.31
2023-01-28T03:31:20.454Z,98198.03
2023-01-28T03:34:11.918Z,98198.50
2023-01-28T03:36:49.963Z,98196.94
2023-01-28T03:39:39.166Z,98198.50
2023-01-28T03:42:13.766Z,98207.41
2023-01-28T03:45:09.441Z,98203.91
2023-01-28T03:47:40.517Z,98202.13
2023-01-28T03:50:11.372Z,98204.50
2023-01-28T03:52:48.903Z,98205.13
2023-01-28T03:55:25.902Z,98201.53
2023-01-28T03:57:53.819Z,98201.53
2023-01-28T04:00:22.623Z,98201.75
2023-01-28T04:02:51.082Z,98205.25
2023-01-28T04:05:21.310Z,98209.47
2023-01-28T04:07:51.681Z,98204.41
2023-01-28T04:10:26.832Z,98206.81
2023-01-28T04:12:58.634Z,98205.25
2023-01-28T04:15:26.839Z,98206.22
2023-01-28T04:17:56.016Z,98210.66
2023-01-28T04:20:27.808Z,98214.13
2023-01-28T04:22:58.523Z,98209.69
2023-01-28T04:25:26.391Z,98211.81
2023-01-28T04:27:54.812Z,98219.72
2023-01-28T04:30:26.681Z,98217.97
2023-01-28T04:33:14.618Z,98219.88
2023-01-28T04:36:11.976Z,98227.91
2023-01-28T04:38:58.419Z,98224.41
2023-01-28T04:41:49.421Z,98230.44
2023-01-28T04:44:27.472Z,98228.84
2023-01-28T04:47:15.478Z,98237.63
2023-01-28T04:50:01.446Z,98230.75
2023-01-28T04:52:43.078Z,98229.91
2023-01-28T04:55:36.966Z,98241.31
2023-01-28T04:58:04.929Z,98229.91
2023-01-28T05:00:34.351Z,98233.63
2023-01-28T05:03:02.795Z,98235.66
2023-01-28T05:05:32.282Z,98237.47
2023-01-28T05:08:09.607Z,98240.09
2023-01-28T05:10:37.331Z,98242.84
2023-01-28T05:13:05.053Z,98244.41
2023-01-28T05:15:32.896Z,98239.22
2023-01-28T05:18:00.632Z,98242.13
2023-01-28T05:20:33.753Z,98243.66
2023-01-28T05:23:03.508Z,98246.94
2023-01-28T05:25:43.474Z,98248.41
2023-01-28T05:28:11.667Z,98245.66
2023-01-28T05:30:39.897Z,98244.69
2023-01-28T05:33:07.709Z,98253.31
2023-01-28T05:35:36.513Z,98248.91
2023-01-28T05:38:06.159Z,98247.94
2023-01-28T05:40:34.006Z,98256.94
2023-01-28T05:43:02.322Z,98258.59
2023-01-28T05:45:44.719Z,98262.94
2023-01-28T05:48:17.455Z,98257.44
2023-01-28T05:51:18.053Z,98260.81
2023-01-28T05:53:53.941Z,98257.31
2023-01-28T05:56:23.583Z,98262.59
2023-01-28T05:58:51.421Z,98261.03
2023-01-28T06:01:20.611Z,98259.47
2023-01-28T06:03:53.366Z,98261.47
2023-01-28T06:06:21.664Z,98263.56
2023-01-28T06:08:49.624Z,98264.75
2023-01-28T06:11:24.066Z,98270.13
2023-01-28T06:13:55.029Z,98276.16
2023-01-28T06:16:52.374Z,98280.34
2023-01-28T06:19:25.400Z,98283.97
2023-01-28T06:21:53.236Z,98285.72
2023-01-28T06:24:21.725Z,98293.78
2023-01-28T06:26:49.521Z,98296.63
2023-01-28T06:29:17.366Z,98293.38
2023-01-28T06:31:45.164Z,98297.59
2023-01-28T06:34:13.287Z,98297.59
2023-01-28T06:36:41.029Z,98297.72
2023-01-28T06:39:08.974Z,98302.56
2023-01-28T06:41:36.817Z,98305.94
2023-01-28T06:44:05.024Z,98307.41
2023-01-28T06:46:32.784Z,98312.09
2023-01-28T06:49:00.703Z,98315.91
2023-01-28T06:51:28.547Z,98316.66
2023-01-28T06:53:56.267Z,98316.13
2023-01-28T06:56:24.007Z,98317.09
2023-01-28T06:58:52.090Z,98314.56
2023-01-28T07:01:19.795Z,98316.38
2023-01-28T07:03:47.636Z,98318.47
2023-01-28T07:06:15.602Z,98320.50
2023-01-28T07:08:43.443Z,98333.06
2023-01-28T07:11:11.174Z,98335.19
2023-01-28T07:13:39.006Z,98329.03
2023-01-28T07:16:07.815Z,98333.19
2023-01-28T07:18:36.015Z,98334.66
2023-01-28T07:21:03.975Z,98343.28
2023-01-28T07:23:31.822Z,98340.44
2023-01-28T07:26:03.984Z,98339.38
2023-01-28T07:28:32.310Z,98340.00
2023-01-28T07:31:00.103Z,98344.13
2023-01-28T07:33:27.868Z,98346.63
2023-01-28T07:35:55.708Z,98341.16
2023-01-28T07:38:23.555Z,98349.59
2023-01-28T07:40:51.299Z,98345.03
2023-01-28T07:43:19.114Z,98346.72
2023-01-28T07:45:48.704Z,98352.09
2023-01-28T07:48:16.725Z,98354.72
2023-01-28T07:50:45.644Z,98358.97
2023-01-28T07:53:13.604Z,98362.56
2023-01-28T07:55:41.686Z,98362.44
2023-01-28T07:58:12.288Z,98367.38
2023-01-28T08:00:40.385Z,98368.88
2023-01-28T08:03:15.936Z,98368.66
2023-01-28T08:05:49.871Z,98362.91
2023-01-28T08:08:17.950Z,98373.16
2023-01-28T08:10:46.263Z,98374.00
2023-01-28T08:13:15.986Z,98377.59
2023-01-28T08:15:43.934Z,98382.13
2023-01-28T08:18:13.838Z,98367.16
2023-01-28T08:20:44.728Z,98374.09
2023-01-28T08:23:20.744Z,98382.75
2023-01-28T08:25:49.013Z,98377.16
2023-01-28T08:28:17.328Z,98379.56
2023-01-28T08:30:45.641Z,98385.59
2023-01-28T08:33:15.558Z,98384.53
2023-01-28T08:35:43.488Z,98386.22
2023-01-28T08:38:13.298Z,98377.56
2023-01-28T08:40:41.066Z,98381.13
2023-01-28T08:43:08.669Z,98382.72
2023-01-28T08:45:36.262Z,98383.13
2023-01-28T08:48:06.451Z,98382.91
2023-01-28T08:50:37.526Z,98381.72
2023-01-28T08:53:16.387Z,98381.50
2023-01-28T08:55:44.898Z,98383.59
2023-01-28T08:58:16.235Z,98381.78
2023-01-28T09:00:47.132Z,98392.56
2023-01-28T09:03:14.794Z,98394.28
2023-01-28T09:05:42.659Z,98394.91
2023-01-28T09:08:13.729Z,98399.81
2023-01-28T09:10:42.048Z,98400.56
2023-01-28T09:13:14.110Z,98396.97
2023-01-28T09:15:42.526Z,98411.84
2023-01-28T09:18:10.298Z,98407.31
2023-01-28T09:20:38.622Z,98411.50
2023-01-28T09:23:06.691Z,98412.59
2023-01-28T09:25:36.159Z,98412.84
2023-01-28T09:28:04.678Z,98411.97
2023-01-28T09:30:32.502Z,98419.78
2023-01-28T09:33:00.056Z,98420.75
2023-01-28T09:35:27.619Z,98421.06
2023-01-28T09:37:59.491Z,98422.88
2023-01-28T09:40:43.915Z,98421.69
2023-01-28T09:44:05.147Z,98430.81
2023-01-28T09:46:37.073Z,98437.66
2023-01-28T09:49:28.203Z,98433.66
2023-01-28T09:51:57.357Z,98439.69
2023-01-28T09:54:40.268Z,98434.84
2023-01-28T09:57:25.892Z,98444.38
2023-01-28T09:59:53.469Z,98449.41
2023-01-28T10:02:29.779Z,98443.59
2023-01-28T10:05:16.699Z,98447.22
2023-01-28T10:08:18.118Z,98448.88
2023-01-28T10:10:55.739Z,98436.66
2023-01-28T10:14:01.065Z,98440.38
2023-01-28T10:17:07.669Z,98432.00
2023-01-28T10:19:49.799Z,98429.72
2023-01-28T10:22:30.783Z,98433.84
2023-01-28T10:25:06.677Z,98431.91
2023-01-28T10:27:37.124Z,98421.59
2023-01-28T10:30:27.461Z,98424.22
2023-01-28T10:33:13.788Z,98427.50
2023-01-28T10:35:42.586Z,98423.78
2023-01-28T10:38:17.081Z,98422.69
2023-01-28T10:40:47.939Z,98419.84
2023-01-28T10:43:24.791Z,98417.63
2023-01-28T10:46:26.722Z,98412.84
2023-01-28T10:49:09.660Z,98419.59
2023-01-28T10:51:41.317Z,98428.03
2023-01-28T10:54:27.454Z,98420.09
2023-01-28T10:57:03.324Z,98417.81
2023-01-28T10:59:36.503Z,98420.34
2023-01-28T11:02:21.042Z,98422.91
2023-01-28T11:04:48.552Z,98430.00
2023-01-28T11:07:20.619Z,98425.66
2023-01-28T11:09:51.764Z,98427.44
2023-01-28T11:12:30.830Z,98427.91
2023-01-28T11:15:03.555Z,98428.97
2023-01-28T11:17:39.254Z,98421.16
2023-01-28T11:20:20.902Z,98431.41
2023-01-28T11:22:49.979Z,98432.06
2023-01-28T11:25:37.138Z,98429.34
2023-01-28T11:28:20.342Z,98431.91
2023-01-28T11:30:54.193Z,98424.59
2023-01-28T11:33:45.158Z,98426.16
2023-01-28T11:36:20.940Z,98425.69
2023-01-28T11:39:05.392Z,98424.81
2023-01-28T11:41:38.952Z,98433.47
2023-01-28T11:44:27.586Z,98423.97
2023-01-28T11:47:37.947Z,98431.72
2023-01-28T11:50:38.360Z,98429.97
2023-01-28T11:53:32.593Z,98433.56
2023-01-28T11:56:31.856Z,98430.28
2023-01-28T11:59:16.690Z,98431.75
2023-01-28T12:01:59.334Z,98440.03
2023-01-28T12:05:04.023Z,98434.91
2023-01-28T12:07:56.627Z,98439.44
2023-01-28T12:11:48.844Z,98438.50
2023-01-28T12:14:35.379Z,98439.13
2023-01-28T12:17:14.576Z,98432.66
2023-01-28T12:20:07.769Z,98437.94
2023-01-28T12:22:54.027Z,98446.31
2023-01-28T12:25:26.343Z,98442.38
2023-01-28T12:28:18.413Z,98439.00
2023-01-28T12:31:29.787Z,98446.50
2023-01-28T12:34:05.894Z,98435.63
2023-01-28T12:37:18.509Z,98441.97
2023-01-28T12:40:15.012Z,98437.72
2023-01-28T12:42:52.649Z,98430.06
2023-01-28T12:45:40.521Z,98429.44
2023-01-28T12:48:22.107Z,98426.69
2023-01-28T12:51:07.584Z,98428.72
2023-01-28T12:54:06.781Z,98424.81
2023-01-28T12:56:40.948Z,98419.34
2023-01-28T12:59:28.815Z,98419.22
2023-01-28T13:02:18.519Z,98420.91
2023-01-28T13:05:13.977Z,98413.44
2023-01-28T13:08:03.251Z,98411.06
2023-01-28T13:10:45.023Z,98417.53
2023-01-28T13:13:28.077Z,98417.88
2023-01-28T13:15:56.212Z,98416.41
2023-01-28T13:19:17.701Z,98418.19
2023-01-28T13:21:49.350Z,98421.44
2023-01-28T13:24:17.188Z,98418.50
2023-01-28T13:26:56.517Z,98428.00
2023-01-28T13:29:34.550Z,98426.91
2023-01-28T13:32:24.324Z,98429.34
2023-01-28T13:35:04.698Z,98429.09
2023-01-28T13:37:44.127Z,98424.44
2023-01-28T13:40:14.768Z,98431.44
2023-01-28T13:42:42.371Z,98427.91
2023-01-28T13:45:16.186Z,98436.47
2023-01-28T13:47:47.053Z,98435.13
2023-01-28T13:50:27.644Z,98437.44
2023-01-28T13:53:17.856Z,98440.31
2023-01-28T13:55:46.637Z,98440.19
2023-01-28T13:59:26.190Z,98436.31
2023-01-28T14:02:06.024Z,98442.09
2023-01-28T14:05:15.328Z,98452.69
2023-01-28T14:08:34.445Z,98444.75
2023-01-28T14:11:54.717Z,98456.06
2023-01-28T14:14:51.247Z,98452.22
2023-01-28T14:17:45.671Z,98453.69
2023-01-28T14:20:37.680Z,98454.66
2023-01-28T14:23:14.616Z,98462.25
2023-01-28T14:25:59.676Z,98469.84
2023-01-28T14:28:49.242Z,98466.88
2023-01-28T14:31:35.430Z,98469.44
2023-01-28T14:34:29.553Z,98476.38
2023-01-28T14:37:04.794Z,98481.91
2023-01-28T14:39:51.033Z,98474.94
2023-01-28T14:42:51.656Z,98481.56
2023-01-28T14:45:59.791Z,98482.44
2023-01-28T14:48:47.387Z,98485.50
2023-01-28T14:51:51.773Z,98486.22
2023-01-28T14:54:36.077Z,98491.31
2023-01-28T14:57:18.989Z,98490.69
2023-01-28T15:01:02.769Z,98487.00
2023-01-28T15:03:32.059Z,98486.25
2023-01-28T15:06:34.229Z,98496.41
2023-01-28T15:09:13.176Z,98500.75
2023-01-28T15:11:46.330Z,98506.66
2023-01-28T15:14:23.044Z,98507.72
2023-01-28T15:16:51.139Z,98509.53
2023-01-28T15:19:29.742Z,98519.25
2023-01-28T15:22:00.977Z,98519.03
2023-01-28T15:24:28.680Z,98526.75
2023-01-28T15:26:56.778Z,98520.72
2023-01-28T15:29:32.659Z,98522.41
2023-01-28T15:32:00.765Z,98522.63
2023-01-28T15:34:30.432Z,98520.00
2023-01-28T15:37:00.653Z,98527.19
2023-01-28T15:39:30.032Z,98527.19
2023-01-28T15:42:02.799Z,98522.84
2023-01-28T15:44:43.966Z,98529.09
2023-01-28T15:47:20.533Z,98529.94
2023-01-28T15:49:53.889Z,98537.03
2023-01-28T15:52:29.021Z,98540.41
2023-01-28T15:54:56.535Z,98543.25
2023-01-28T15:57:34.266Z,98546.72
2023-01-28T16:00:07.231Z,98544.72
2023-01-28T16:02:55.063Z,98549.47
2023-01-28T16:05:38.206Z,98549.59
2023-01-28T16:08:27.046Z,98550.44
2023-01-28T16:10:56.406Z,98538.06
2023-01-28T16:13:28.394Z,98543.25
2023-01-28T16:15:57.566Z,98544.19
2023-01-28T16:18:38.743Z,98548.75
2023-01-28T16:21:10.592Z,98555.94
2023-01-28T16:23:39.874Z,98557.09
2023-01-28T16:26:24.413Z,98553.97
2023-01-28T16:28:52.247Z,98554.06
2023-01-28T16:31:20.481Z,98549.81
2023-01-28T16:33:48.446Z,98556.81
2023-01-28T16:36:19.182Z,98555.22
2023-01-28T16:38:46.766Z,98557.53
2023-01-28T16:41:27.426Z,98554.78
2023-01-28T16:43:54.947Z,98555.31
2023-01-28T16:46:26.212Z,98553.28
2023-01-28T16:48:53.776Z,98553.09
2023-01-28T16:51:21.349Z,98555.53
2023-01-28T16:53:50.071Z,98545.88
2023-01-28T16:56:44.121Z,98544.19
2023-01-28T16:59:11.674Z,98552.34
2023-01-28T17:01:39.556Z,98554.75
2023-01-28T17:04:12.357Z,98558.16
2023-01-28T17:06:44.241Z,98550.84
2023-01-28T17:09:14.049Z,98559.50
2023-01-28T17:11:41.714Z,98559.63
2023-01-28T17:14:11.142Z,98551.69
2023-01-28T17:16:38.995Z,98560.47
2023-01-28T17:19:06.664Z,98566.50
2023-01-28T17:21:34.514Z,98560.25
2023-01-28T17:24:02.984Z,98565.66
2023-01-28T17:26:30.827Z,98563.84
2023-01-28T17:28:58.378Z,98562.03
2023-01-28T17:31:26.384Z,98573.56
2023-01-28T17:33:56.420Z,98573.78
2023-01-28T17:36:25.060Z,98574.84
2023-01-28T17:38:53.615Z,98579.06
2023-01-28T17:41:21.741Z,98578.34
2023-01-28T17:43:54.793Z,98579.16
2023-01-28T17:46:25.407Z,98583.53
2023-01-28T17:48:53.709Z,98580.03
2023-01-28T17:51:21.627Z,98580.88
2023-01-28T17:53:53.587Z,98584.59
2023-01-28T17:56:26.835Z,98585.88
2023-01-28T17:58:57.648Z,98589.69
2023-01-28T18:01:26.533Z,98598.13
2023-01-28T18:03:55.187Z,98591.16
2023-01-28T18:06:22.964Z,98587.56
2023-01-28T18:08:50.773Z,98581.31
2023-01-28T18:11:19.862Z,98589.25
2023-01-28T18:13:47.484Z,98585.75
2023-01-28T18:16:18.426Z,98593.88
2023-01-28T18:18:46.767Z,98596.88
2023-01-28T18:21:51.310Z,98601.84
2023-01-28T18:24:24.484Z,98605.31
2023-01-28T18:26:55.470Z,98601.19
2023-01-28T18:29:24.066Z,98597.09
2023-01-28T18:31:54.962Z,98597.28
2023-01-28T18:34:25.646Z,98606.38
2023-01-28T18:36:53.969Z,98612.81
2023-01-28T18:39:21.744Z,98623.38
2023-01-28T18:41:52.987Z,98624.31
2023-01-28T18:44:21.003Z,98626.53
2023-01-28T18:46:49.157Z,98618.91
2023-01-28T18:49:16.824Z,98625.56
2023-01-28T18:51:44.528Z,98626.59
2023-01-28T18:54:14.885Z,98623.22
2023-01-28T18:56:44.032Z,98626.81
2023-01-28T18:59:14.267Z,98629.72
2023-01-28T19:01:42.765Z,98621.81
2023-01-28T19:04:10.920Z,98620.25
2023-01-28T19:06:38.569Z,98627.22
2023-01-28T19:09:07.154Z,98632.38
2023-01-28T19:11:34.979Z,98632.59
2023-01-28T19:14:02.902Z,98622.03
2023-01-28T19:16:30.747Z,98618.44
2023-01-28T19:19:00.682Z,98626.25
2023-01-28T19:21:31.196Z,98631.25
2023-01-28T19:24:01.912Z,98624.16
2023-01-28T19:26:31.352Z,98635.38
2023-01-28T19:28:59.483Z,98638.75
2023-01-28T19:31:27.406Z,98639.59
2023-01-28T19:33:58.090Z,98644.88
2023-01-28T19:36:28.046Z,98644.69
2023-01-28T19:39:07.021Z,98647.41
2023-01-28T19:41:35.880Z,98647.81
2023-01-28T19:44:04.919Z,98638.94
2023-01-28T19:46:33.840Z,98638.75
2023-01-28T19:49:01.873Z,98636.31
2023-01-28T19:51:29.590Z,98639.91
2023-01-28T19:53:57.911Z,98634.63
2023-01-28T19:56:26.857Z,98635.78
2023-01-28T19:58:54.995Z,98636.06
2023-01-28T20:01:29.874Z,98639.78
2023-01-28T20:04:00.015Z,98635.44
2023-01-28T20:06:31.032Z,98644.50
2023-01-28T20:09:14.475Z,98643.09
2023-01-28T20:11:41.979Z,98636.25
2023-01-28T20:14:09.637Z,98642.66
2023-01-28T20:16:37.284Z,98647.00
2023-01-28T20:19:08.351Z,98648.59
2023-01-28T20:21:36.250Z,98654.41
2023-01-28T20:24:04.767Z,98662.78
2023-01-28T20:26:35.984Z,98671.34
2023-01-28T20:29:13.611Z,98677.38
2023-01-28T20:31:42.423Z,98681.78
2023-01-28T20:34:17.003Z,98682.59
2023-01-28T20:36:45.129Z,98689.50
2023-01-28T20:39:13.677Z,98689.44
2023-01-28T20:41:41.151Z,98700.69
2023-01-28T20:44:08.622Z,98700.13
2023-01-28T20:46:37.054Z,98695.50
2023-01-28T20:49:06.615Z,98695.41
2023-01-28T20:51:35.918Z,98700.94
2023-01-28T20:54:04.227Z,98701.81
2023-01-28T20:56:31.929Z,98704.25
2023-01-28T20:59:04.524Z,98693.16
2023-01-28T21:01:35.049Z,98706.88
2023-01-28T21:04:04.801Z,98703.97
2023-01-28T21:06:33.034Z,98697.13
2023-01-28T21:09:00.824Z,98705.97
2023-01-28T21:11:28.646Z,98710.13
2023-01-28T21:13:56.812Z,98703.72
2023-01-28T21:16:25.271Z,98707.88
2023-01-28T21:18:52.838Z,98711.16
2023-01-28T21:21:28.890Z,98720.56
2023-01-28T21:24:00.346Z,98716.53
2023-01-28T21:26:28.392Z,98710.13
2023-01-28T21:28:56.253Z,98724.06
2023-01-28T21:31:26.255Z,98717.94
2023-01-28T21:33:58.700Z,98713.41
2023-01-28T21:36:27.177Z,98712.38
2023-01-28T21:38:58.215Z,98707.84
2023-01-28T21:41:27.372Z,98697.69
2023-01-28T21:43:57.106Z,98688.94
2023-01-28T21:46:28.746Z,98700.69
2023-01-28T21:49:01.682Z,98697.03
2023-01-28T21:51:35.732Z,98695.41
2023-01-28T21:54:04.304Z,98697.50
2023-01-28T21:56:31.802Z,98698.72
2023-01-28T21:59:17.726Z,98707.50
2023-01-28T22:01:45.986Z,98700.50
2023-01-28T22:04:14.135Z,98706.72
2023-01-28T22:06:42.735Z,98715.66
2023-01-28T22:09:14.402Z,98715.00
2023-01-28T22:11:44.219Z,98716.44
2023-01-28T22:14:12.584Z,98706.91
2023-01-28T22:16:40.366Z,98711.16
2023-01-28T22:19:08.584Z,98716.53
2023-01-28T22:21:42.360Z,98706.66
2023-01-28T22:24:22.507Z,98708.44
2023-01-28T22:26:51.944Z,98707.97
2023-01-28T22:29:21.505Z,98712.75
2023-01-28T22:31:52.279Z,98698.25
2023-01-28T22:34:21.165Z,98707.31
2023-01-28T22:36:50.029Z,98704.56
2023-01-28T22:39:18.401Z,98693.00
2023-01-28T22:41:46.637Z,98705.41
2023-01-28T22:44:14.437Z,98706.56
2023-01-28T22:46:42.368Z,98703.25
2023-01-28T22:49:12.062Z,98702.69
2023-01-28T22:51:39.583Z,98702.78
2023-01-28T22:54:07.972Z,98700.91
2023-01-28T22:56:35.594Z,98707.69
2023-01-28T22:59:04.196Z,98702.13
2023-01-28T23:01:32.410Z,98692.63
2023-01-28T23:04:00.218Z,98702.88
2023-01-28T23:06:28.239Z,98706.16
2023-01-28T23:08:56.501Z,98695.63
2023-01-28T23:11:25.455Z,98699.94
2023-01-28T23:14:15.277Z,98699.19
2023-01-28T23:17:01.985Z,98700.81
2023-01-28T23:19:48.601Z,98693.44
2023-01-28T23:22:41.911Z,98698.44
2023-01-28T23:25:10.231Z,98691.16
2023-01-28T23:27:38.053Z,98694.44
2023-01-28T23:30:09.904Z,98693.91
2023-01-28T23:32:49.400Z,98697.78
2023-01-28T23:35:18.882Z,98704.06
2023-01-28T23:37:47.853Z,98686.66
2023-01-28T23:40:16.355Z,98682.53
2023-01-28T23:42:55.101Z,98679.81
2023-01-28T23:45:22.912Z,98688.16
2023-01-28T23:47:50.495Z,98673.00
2023-01-28T23:50:18.490Z,98675.34
2023-01-28T23:52:46.194Z,98678.19
2023-01-28T23:55:13.651Z,98675.63
2023-01-28T23:57:41.614Z,98675.38
